createdAt,value
2023-02-07T17:24:18.963Z,0.76
2023-02-07T17:34:24.813Z,0.88
2023-02-07T17:44:33.075Z,1.22
2023-02-07T17:55:38.463Z,1.42
2023-02-07T18:07:02.631Z,1.31
2023-02-07T18:17:06.646Z,1.44
2023-02-07T18:27:10.625Z,1.40
2023-02-07T18:37:17.585Z,1.29
2023-02-07T18:47:21.524Z,1.24
2023-02-07T18:57:25.906Z,1.21
2023-02-07T19:07:29.750Z,1.12
2023-02-07T19:17:33.737Z,1.18
2023-02-07T19:27:37.469Z,1.16
2023-02-07T19:37:41.493Z,1.28
2023-02-07T19:47:45.183Z,1.33
2023-02-07T19:57:49.279Z,1.25
2023-02-07T20:07:54.152Z,1.18
2023-02-07T20:17:59.334Z,1.17
2023-02-07T20:28:03.527Z,1.31
2023-02-07T20:38:10.075Z,1.22
2023-02-07T20:48:15.628Z,1.30
2023-02-07T20:58:19.621Z,1.25
2023-02-07T21:08:23.685Z,1.25
2023-02-07T21:18:28.570Z,1.42
2023-02-07T21:28:33.403Z,1.56
2023-02-07T21:38:39.540Z,1.30
2023-02-07T21:48:43.218Z,1.25
2023-02-07T21:58:48.251Z,1.42
2023-02-07T22:08:56.583Z,1.55
2023-02-07T22:19:02.511Z,1.47
2023-02-07T22:29:07.501Z,1.25
2023-02-07T22:39:13.145Z,1.10
2023-02-07T22:49:16.972Z,1.00
2023-02-07T22:59:20.822Z,1.03
2023-02-07T23:09:24.505Z,0.95
2023-02-07T23:19:28.198Z,0.87
2023-02-07T23:29:31.858Z,0.96
2023-02-07T23:39:35.665Z,0.92
2023-02-07T23:49:39.406Z,0.93
2023-02-07T23:59:43.175Z,0.94
